Dowell, Maryland
Current Conditions -  °F | °C
As of 2:16 AM on Saturday 29 Nov 2014 (Local Time) from K2W6 Reporting Station
Broken Clouds Broken Clouds  
Wind Chill: 28°   Ceiling: 11000
Heat Index: 28°   Visibility: 10mi
Dew Point: 23°   Wind: 0mph
Humidity: 80%   Direction: NA
Pressure: 30.34"   Gusts: NA
Location:  38.35°N, 76.46°W
Report Text: K2W6 290716Z AUTO 00000KT 10SM BKN110 M02/M05 A3034 RMK AO1
Loading
Personal Weather Stations






























Interactive Weather Map New forecast layout! Learn more

10-Day Weather Forecast

Advertisements
Track Severe Weather on mobile